createdAt,value
2019-02-24T00:02:23.539Z,4.20
2019-02-24T00:05:25.280Z,3.70
2019-02-24T00:08:27.039Z,4.85
2019-02-24T00:11:29.141Z,4.10
2019-02-24T00:14:31.142Z,3.80
2019-02-24T00:17:34.738Z,3.72
2019-02-24T00:20:36.487Z,3.80
2019-02-24T00:23:39.638Z,3.92
2019-02-24T00:26:41.290Z,3.90
2019-02-24T00:29:42.765Z,3.67
2019-02-24T00:32:44.276Z,3.72
2019-02-24T00:35:45.799Z,4.03
2019-02-24T00:38:50.014Z,3.87
2019-02-24T00:41:51.584Z,3.52
2019-02-24T00:44:53.349Z,3.83
2019-02-24T00:47:54.816Z,3.92
2019-02-24T00:50:56.276Z,3.67
2019-02-24T00:53:57.865Z,3.40
2019-02-24T00:56:59.335Z,3.87
2019-02-24T01:00:00.792Z,4.83
2019-02-24T01:03:02.437Z,3.80
2019-02-24T01:06:04.163Z,3.62
2019-02-24T01:09:06.856Z,3.72
2019-02-24T01:12:11.060Z,4.25
2019-02-24T01:15:12.228Z,3.92
2019-02-24T01:18:16.362Z,3.08
2019-02-24T01:21:17.995Z,3.65
2019-02-24T01:24:19.639Z,3.60
2019-02-24T01:27:21.152Z,3.87
2019-02-24T01:30:22.578Z,3.70
2019-02-24T01:33:24.050Z,3.55
2019-02-24T01:36:25.436Z,3.90
2019-02-24T01:39:27.001Z,3.85
2019-02-24T01:42:28.434Z,3.30
2019-02-24T01:45:30.245Z,3.58
2019-02-24T01:48:31.722Z,3.35
2019-02-24T01:51:33.375Z,3.27
2019-02-24T01:54:35.043Z,3.10
2019-02-24T01:57:36.777Z,3.50
2019-02-24T02:00:39.348Z,3.85
2019-02-24T02:03:40.905Z,3.90
2019-02-24T02:06:42.375Z,3.50
2019-02-24T02:09:43.835Z,3.47
2019-02-24T02:12:46.866Z,3.50
2019-02-24T02:15:49.356Z,3.50
2019-02-24T02:18:50.831Z,3.90
2019-02-24T02:21:52.468Z,3.85
2019-02-24T02:24:53.939Z,3.00
2019-02-24T02:27:55.885Z,3.77
2019-02-24T02:30:57.440Z,3.33
2019-02-24T02:33:59.088Z,3.83
2019-02-24T02:37:01.976Z,3.43
2019-02-24T02:40:03.715Z,3.33
2019-02-24T02:43:06.189Z,3.73
2019-02-24T02:46:07.665Z,3.53
2019-02-24T02:49:09.158Z,3.90
2019-02-24T02:52:13.153Z,3.30
2019-02-24T02:55:14.804Z,3.50
2019-02-24T02:58:18.019Z,3.23
2019-02-24T03:01:19.555Z,3.53
2019-02-24T03:04:20.997Z,3.47
2019-02-24T03:07:27.280Z,3.70
2019-02-24T03:10:28.643Z,3.10
2019-02-24T03:13:30.035Z,3.52
2019-02-24T03:16:31.414Z,3.43
2019-02-24T03:19:32.822Z,3.13
2019-02-24T03:22:34.206Z,3.63
2019-02-24T03:25:35.660Z,3.20
2019-02-24T03:28:38.018Z,3.50
2019-02-24T03:31:39.630Z,3.40
2019-02-24T03:34:41.334Z,3.40
2019-02-24T03:37:42.784Z,3.50
2019-02-24T03:40:44.244Z,3.00
2019-02-24T03:43:45.596Z,3.30
2019-02-24T03:46:46.959Z,3.33
2019-02-24T03:49:48.445Z,3.20
2019-02-24T03:52:49.922Z,3.20
2019-02-24T03:55:51.269Z,3.50
2019-02-24T03:58:53.601Z,3.60
2019-02-24T04:01:55.040Z,3.13
2019-02-24T04:04:56.476Z,3.20
2019-02-24T04:07:57.902Z,3.53
2019-02-24T04:10:59.288Z,3.40
2019-02-24T04:14:00.749Z,3.73
2019-02-24T04:17:02.159Z,3.37
2019-02-24T04:20:03.532Z,3.23
2019-02-24T04:23:04.933Z,3.63
2019-02-24T04:26:06.320Z,3.17
2019-02-24T04:29:07.715Z,3.30
2019-02-24T04:32:09.079Z,3.67
2019-02-24T04:35:10.588Z,3.70
2019-02-24T04:38:11.924Z,3.70
2019-02-24T04:41:13.293Z,3.63
2019-02-24T04:44:15.690Z,3.80
2019-02-24T04:47:17.136Z,3.50
2019-02-24T04:50:18.598Z,3.40
2019-02-24T04:53:20.051Z,3.67
2019-02-24T04:56:21.601Z,3.30
2019-02-24T04:59:23.048Z,3.90
2019-02-24T05:02:24.443Z,3.80
2019-02-24T05:05:25.818Z,3.00
2019-02-24T05:08:27.301Z,3.50
2019-02-24T05:11:28.702Z,3.50
2019-02-24T05:14:30.174Z,3.27
2019-02-24T05:17:31.574Z,3.70
2019-02-24T05:20:33.453Z,3.67
2019-02-24T05:23:34.985Z,3.23
2019-02-24T05:26:36.407Z,3.53
2019-02-24T05:29:45.730Z,3.13
2019-02-24T05:32:42.066Z,3.10
2019-02-24T05:35:43.509Z,3.93
2019-02-24T05:38:45.048Z,3.23
2019-02-24T05:41:46.930Z,3.53
2019-02-24T05:44:49.627Z,3.40
2019-02-24T05:47:51.168Z,3.00
2019-02-24T05:50:52.568Z,3.77
2019-02-24T05:53:53.969Z,3.00
2019-02-24T05:56:55.367Z,2.90
2019-02-24T05:59:56.839Z,3.13
2019-02-24T06:02:58.238Z,3.40
2019-02-24T06:05:59.695Z,3.27
2019-02-24T06:09:01.054Z,3.30
2019-02-24T06:12:04.255Z,3.20
2019-02-24T06:15:06.059Z,3.70
2019-02-24T06:18:07.432Z,3.30
2019-02-24T06:21:08.764Z,3.20
2019-02-24T06:24:10.349Z,3.17
2019-02-24T06:27:11.764Z,2.97
2019-02-24T06:30:13.134Z,3.30
2019-02-24T06:33:14.497Z,3.33
2019-02-24T06:36:15.868Z,3.17
2019-02-24T06:39:17.254Z,3.30
2019-02-24T06:42:18.707Z,3.27
2019-02-24T06:45:20.102Z,3.40
2019-02-24T06:48:21.474Z,3.13
2019-02-24T06:51:22.953Z,3.33
2019-02-24T06:54:24.319Z,3.00
2019-02-24T06:57:25.658Z,3.37
2019-02-24T07:00:27.040Z,3.50
2019-02-24T07:03:28.635Z,3.03
2019-02-24T07:06:30.008Z,2.77
2019-02-24T07:09:31.358Z,3.13
2019-02-24T07:12:32.717Z,3.40
2019-02-24T07:15:34.208Z,3.30
2019-02-24T07:18:35.670Z,3.47
2019-02-24T07:21:37.094Z,3.20
2019-02-24T07:24:38.481Z,3.23
2019-02-24T07:27:39.853Z,3.27
2019-02-24T07:30:41.309Z,3.73
2019-02-24T07:33:42.726Z,3.33
2019-02-24T07:36:44.109Z,3.60
2019-02-24T07:39:45.508Z,3.10
2019-02-24T07:42:46.869Z,3.17
2019-02-24T07:45:48.280Z,3.47
2019-02-24T07:48:51.360Z,3.30
2019-02-24T07:51:52.789Z,3.33
2019-02-24T07:54:54.447Z,3.37
2019-02-24T07:57:56.192Z,3.00
2019-02-24T08:00:58.162Z,3.50
2019-02-24T08:03:59.891Z,3.50
2019-02-24T08:07:01.767Z,3.20
2019-02-24T08:10:03.233Z,3.00
2019-02-24T08:13:04.732Z,3.23
2019-02-24T08:16:06.147Z,3.63
2019-02-24T08:19:07.742Z,3.23
2019-02-24T08:22:09.147Z,2.97
2019-02-24T08:25:10.593Z,3.40
2019-02-24T08:28:12.148Z,3.30
2019-02-24T08:31:14.061Z,3.10
2019-02-24T08:34:15.442Z,2.83
2019-02-24T08:37:16.986Z,3.33
2019-02-24T08:40:18.400Z,3.27
2019-02-24T08:43:19.868Z,3.10
2019-02-24T08:46:21.426Z,2.57
2019-02-24T08:49:23.943Z,3.10
2019-02-24T08:52:25.719Z,3.17
2019-02-24T08:55:27.265Z,3.13
2019-02-24T08:58:28.819Z,3.67
2019-02-24T09:01:30.284Z,2.97
2019-02-24T09:04:31.890Z,3.20
2019-02-24T09:07:33.351Z,2.90
2019-02-24T09:10:34.791Z,2.80
2019-02-24T09:13:36.699Z,2.77
2019-02-24T09:16:38.234Z,3.02
2019-02-24T09:19:39.835Z,3.30
2019-02-24T09:22:41.295Z,3.10
2019-02-24T09:25:42.723Z,3.00
2019-02-24T09:28:44.258Z,3.10
2019-02-24T09:31:45.965Z,3.10
2019-02-24T09:34:47.492Z,2.90
2019-02-24T09:37:49.029Z,3.22
2019-02-24T09:40:50.531Z,2.85
2019-02-24T09:43:51.952Z,2.97
2019-02-24T09:46:53.362Z,3.00
2019-02-24T09:49:54.947Z,2.87
2019-02-24T09:52:56.443Z,2.50
2019-02-24T09:55:58.164Z,2.87
2019-02-24T09:58:59.630Z,2.80
2019-02-24T10:02:01.205Z,2.42
2019-02-24T10:05:02.912Z,2.83
2019-02-24T10:08:05.102Z,2.72
2019-02-24T10:11:06.688Z,3.10
2019-02-24T10:14:08.206Z,2.98
2019-02-24T10:17:09.729Z,3.33
2019-02-24T10:20:11.514Z,2.95
2019-02-24T10:23:13.003Z,3.05
2019-02-24T10:26:14.545Z,2.62
2019-02-24T10:29:16.076Z,2.92
2019-02-24T10:32:17.512Z,2.80
2019-02-24T10:35:19.035Z,3.22
2019-02-24T10:38:20.678Z,3.17
2019-02-24T10:41:22.268Z,2.85
2019-02-24T10:44:23.805Z,2.55
2019-02-24T10:47:25.250Z,2.77
2019-02-24T10:50:26.784Z,3.10
2019-02-24T10:53:28.347Z,2.85
2019-02-24T10:56:30.792Z,2.83
2019-02-24T10:59:32.875Z,2.90
2019-02-24T11:02:34.490Z,3.50
2019-02-24T11:05:36.023Z,3.20
2019-02-24T11:08:37.897Z,3.47
2019-02-24T11:11:39.501Z,3.47
2019-02-24T11:14:41.022Z,3.92
2019-02-24T11:17:42.433Z,3.60
2019-02-24T11:20:43.900Z,3.83
2019-02-24T11:23:45.369Z,3.77
2019-02-24T11:26:46.834Z,4.30
2019-02-24T11:29:48.754Z,4.35
2019-02-24T11:32:50.255Z,4.78
2019-02-24T11:35:51.735Z,3.95
2019-02-24T11:38:53.285Z,4.53
2019-02-24T11:41:54.787Z,5.20
2019-02-24T11:44:56.314Z,5.60
2019-02-24T11:47:58.258Z,5.50
2019-02-24T11:50:59.912Z,4.67
2019-02-24T11:54:01.642Z,4.80
2019-02-24T11:57:03.331Z,5.28
2019-02-24T12:00:07.072Z,4.53
2019-02-24T12:03:12.235Z,4.80
2019-02-24T12:06:14.227Z,5.17
2019-02-24T12:09:15.957Z,5.47
2019-02-24T12:12:17.708Z,4.90
2019-02-24T12:15:19.468Z,4.78
2019-02-24T12:18:21.244Z,3.60
2019-02-24T12:21:24.324Z,3.77
2019-02-24T12:24:25.906Z,3.70
2019-02-24T12:27:27.754Z,3.30
2019-02-24T12:30:29.589Z,3.58
2019-02-24T12:33:31.242Z,3.77
2019-02-24T12:36:32.949Z,3.33
2019-02-24T12:39:34.788Z,3.60
2019-02-24T12:42:36.478Z,3.22
2019-02-24T12:45:38.110Z,3.45
2019-02-24T12:48:39.668Z,3.35
2019-02-24T12:51:41.356Z,4.03
2019-02-24T12:54:42.810Z,3.40
2019-02-24T12:57:44.314Z,3.77
2019-02-24T13:00:45.883Z,3.40
2019-02-24T13:03:47.346Z,2.98
2019-02-24T13:06:49.377Z,3.58
2019-02-24T13:09:50.978Z,3.17
2019-02-24T13:12:52.516Z,3.20
2019-02-24T13:15:54.150Z,3.20
2019-02-24T13:18:56.021Z,3.08
2019-02-24T13:21:57.682Z,3.20
2019-02-24T13:24:59.861Z,3.17
2019-02-24T13:28:01.448Z,3.15
2019-02-24T13:31:03.085Z,2.98
2019-02-24T13:34:05.315Z,2.92
2019-02-24T13:37:06.876Z,2.75
2019-02-24T13:40:09.722Z,2.70
2019-02-24T13:43:11.293Z,3.30
2019-02-24T13:46:12.953Z,2.90
2019-02-24T13:49:14.471Z,2.92
2019-02-24T13:52:16.043Z,2.67
2019-02-24T13:55:17.953Z,2.80
2019-02-24T13:58:20.930Z,2.90
2019-02-24T14:01:22.687Z,2.95
2019-02-24T14:04:26.191Z,3.12
2019-02-24T14:07:27.881Z,2.50
2019-02-24T14:10:29.601Z,2.60
2019-02-24T14:13:31.216Z,2.55
2019-02-24T14:16:32.906Z,3.02
2019-02-24T14:19:34.570Z,2.62
2019-02-24T14:22:37.639Z,2.65
2019-02-24T14:25:41.251Z,2.62
2019-02-24T14:28:42.585Z,2.67
2019-02-24T14:31:44.277Z,2.45
2019-02-24T14:34:45.897Z,3.10
2019-02-24T14:37:47.466Z,2.52
2019-02-24T14:40:49.019Z,2.33
2019-02-24T14:43:50.637Z,2.25
2019-02-24T14:46:52.329Z,2.80
2019-02-24T14:49:53.832Z,2.40
2019-02-24T14:52:55.311Z,2.47
2019-02-24T14:55:56.877Z,2.72
2019-02-24T14:58:58.408Z,2.17
2019-02-24T15:02:00.446Z,2.30
2019-02-24T15:05:02.189Z,2.42
2019-02-24T15:08:03.790Z,2.37
2019-02-24T15:11:05.860Z,2.50
2019-02-24T15:14:07.515Z,2.10
2019-02-24T15:17:09.700Z,2.40
2019-02-24T15:20:16.094Z,2.50
2019-02-24T15:23:17.944Z,2.12
2019-02-24T15:26:20.957Z,2.10
2019-02-24T15:29:22.865Z,2.22
2019-02-24T15:32:24.433Z,2.20
2019-02-24T15:35:27.754Z,2.33
2019-02-24T15:38:29.418Z,1.95
2019-02-24T15:41:31.403Z,2.17
2019-02-24T15:44:33.013Z,2.27
2019-02-24T15:47:34.654Z,2.37
2019-02-24T15:50:36.545Z,2.30
2019-02-24T15:53:38.127Z,2.75
2019-02-24T15:56:39.626Z,2.85
2019-02-24T15:59:41.247Z,3.08
2019-02-24T16:02:43.221Z,2.70
2019-02-24T16:05:44.827Z,2.08
2019-02-24T16:08:46.328Z,2.20
2019-02-24T16:11:47.873Z,2.40
2019-02-24T16:14:49.394Z,2.65
2019-02-24T16:17:51.440Z,2.10
2019-02-24T16:20:53.075Z,1.92
2019-02-24T16:23:55.065Z,2.17
2019-02-24T16:26:56.764Z,2.33
2019-02-24T16:29:58.313Z,2.25
2019-02-24T16:33:00.157Z,2.33
2019-02-24T16:36:02.937Z,2.02
2019-02-24T16:39:05.038Z,2.65
2019-02-24T16:42:07.550Z,1.90
2019-02-24T16:45:10.745Z,2.10
2019-02-24T16:48:12.370Z,2.12
2019-02-24T16:51:13.926Z,2.40
2019-02-24T16:54:15.415Z,2.25
2019-02-24T16:57:17.362Z,2.00
2019-02-24T17:00:21.099Z,2.72
2019-02-24T17:03:23.085Z,2.37
2019-02-24T17:06:24.693Z,2.05
2019-02-24T17:09:26.197Z,2.40
2019-02-24T17:12:27.903Z,2.35
2019-02-24T17:15:32.907Z,2.67
2019-02-24T17:18:34.521Z,2.40
2019-02-24T17:21:36.724Z,2.60
2019-02-24T17:24:38.820Z,2.70
2019-02-24T17:27:40.372Z,2.40
2019-02-24T17:30:41.880Z,2.52
2019-02-24T17:33:43.524Z,2.30
2019-02-24T17:36:45.475Z,2.58
2019-02-24T17:39:47.127Z,2.47
2019-02-24T17:42:48.783Z,2.22
2019-02-24T17:45:53.859Z,2.30
2019-02-24T17:48:56.404Z,2.33
2019-02-24T17:51:58.255Z,2.45
2019-02-24T17:54:59.916Z,2.22
2019-02-24T17:58:01.470Z,2.20
2019-02-24T18:01:04.659Z,2.52
2019-02-24T18:04:06.262Z,2.80
2019-02-24T18:07:08.158Z,2.55
2019-02-24T18:10:09.626Z,2.40
2019-02-24T18:13:11.409Z,2.30
2019-02-24T18:16:13.472Z,2.17
2019-02-24T18:19:15.050Z,2.45
2019-02-24T18:22:16.690Z,2.30
2019-02-24T18:25:18.584Z,2.02
2019-02-24T18:28:20.201Z,2.72
2019-02-24T18:31:21.932Z,2.77
2019-02-24T18:34:23.645Z,2.08
2019-02-24T18:37:26.110Z,2.85
2019-02-24T18:40:27.654Z,2.80
2019-02-24T18:43:29.205Z,2.35
2019-02-24T18:46:30.642Z,2.58
2019-02-24T18:49:32.415Z,2.50
2019-02-24T18:52:34.415Z,2.40
2019-02-24T18:55:36.037Z,2.47
2019-02-24T18:58:37.881Z,3.15
2019-02-24T19:01:39.522Z,2.95
2019-02-24T19:04:41.128Z,2.67
2019-02-24T19:07:44.027Z,2.83
2019-02-24T19:10:45.799Z,2.70
2019-02-24T19:13:48.477Z,2.87
2019-02-24T19:16:50.290Z,2.58
2019-02-24T19:19:51.846Z,2.67
2019-02-24T19:22:53.401Z,2.42
2019-02-24T19:25:55.027Z,3.15
2019-02-24T19:28:56.991Z,2.75
2019-02-24T19:31:58.581Z,3.30
2019-02-24T19:35:00.287Z,3.10
2019-02-24T19:38:02.317Z,2.90
2019-02-24T19:41:04.382Z,3.27
2019-02-24T19:44:06.041Z,3.10
2019-02-24T19:47:07.622Z,3.25
2019-02-24T19:50:13.131Z,3.22
2019-02-24T19:53:16.073Z,2.72
2019-02-24T19:56:17.543Z,3.22
2019-02-24T19:59:19.134Z,3.20
2019-02-24T20:02:20.697Z,3.00
2019-02-24T20:05:23.568Z,3.00
2019-02-24T20:08:25.200Z,3.35
2019-02-24T20:11:26.804Z,2.95
2019-02-24T20:14:28.854Z,3.10
2019-02-24T20:17:30.441Z,3.35
2019-02-24T20:20:32.055Z,3.40
2019-02-24T20:23:33.625Z,3.27
2019-02-24T20:26:35.386Z,3.22
2019-02-24T20:29:37.079Z,3.37
2019-02-24T20:32:38.816Z,3.37
2019-02-24T20:35:40.651Z,3.30
2019-02-24T20:38:42.195Z,3.30
2019-02-24T20:41:43.785Z,3.60
2019-02-24T20:44:45.314Z,3.33
2019-02-24T20:47:47.102Z,3.40
2019-02-24T20:50:48.685Z,3.87
2019-02-24T20:53:50.234Z,3.58
2019-02-24T20:56:51.825Z,3.67
2019-02-24T20:59:53.631Z,3.90
2019-02-24T21:02:55.662Z,3.65
2019-02-24T21:05:57.562Z,3.85
2019-02-24T21:08:59.126Z,4.17
2019-02-24T21:12:00.687Z,3.90
2019-02-24T21:15:02.167Z,4.42
2019-02-24T21:18:03.689Z,4.03
2019-02-24T21:21:05.569Z,3.47
2019-02-24T21:24:07.085Z,4.80
2019-02-24T21:27:08.618Z,4.62
2019-02-24T21:30:12.275Z,4.10
2019-02-24T21:33:14.217Z,4.28
2019-02-24T21:36:15.822Z,4.33
2019-02-24T21:39:17.298Z,3.80
2019-02-24T21:42:18.810Z,4.33
2019-02-24T21:45:20.847Z,4.50
2019-02-24T21:48:22.297Z,4.20
2019-02-24T21:51:24.079Z,4.33
2019-02-24T21:54:25.962Z,4.03
2019-02-24T21:57:27.468Z,3.77
2019-02-24T22:00:28.960Z,4.87
2019-02-24T22:03:30.409Z,4.60
2019-02-24T22:06:31.921Z,4.65
2019-02-24T22:09:33.412Z,4.50
2019-02-24T22:12:34.939Z,4.22
2019-02-24T22:15:36.786Z,4.12
2019-02-24T22:18:38.228Z,4.33
2019-02-24T22:21:39.771Z,5.00
2019-02-24T22:24:41.264Z,4.08
2019-02-24T22:27:42.673Z,4.65
2019-02-24T22:30:44.159Z,3.95
2019-02-24T22:33:45.621Z,4.40
2019-02-24T22:36:47.084Z,4.37
2019-02-24T22:39:48.556Z,4.00
2019-02-24T22:42:50.295Z,3.98
2019-02-24T22:45:51.843Z,4.22
2019-02-24T22:48:53.333Z,4.28
2019-02-24T22:51:54.769Z,4.90
2019-02-24T22:54:56.249Z,4.28
2019-02-24T22:57:57.746Z,4.22
2019-02-24T23:01:14.366Z,4.30
2019-02-24T23:04:17.637Z,4.25
2019-02-24T23:07:19.189Z,4.67
2019-02-24T23:10:20.728Z,4.08
2019-02-24T23:13:22.641Z,3.90
2019-02-24T23:16:24.309Z,4.65
2019-02-24T23:19:25.961Z,4.05
2019-02-24T23:22:27.480Z,4.47
2019-02-24T23:25:28.944Z,4.97
2019-02-24T23:28:30.455Z,4.60
2019-02-24T23:31:31.924Z,4.35
2019-02-24T23:34:33.363Z,4.62
2019-02-24T23:37:34.778Z,5.00
2019-02-24T23:40:36.576Z,4.78
2019-02-24T23:43:38.018Z,4.97
2019-02-24T23:46:39.405Z,4.78
2019-02-24T23:49:40.852Z,4.72
2019-02-24T23:52:42.268Z,4.83
2019-02-24T23:55:43.731Z,5.03
2019-02-24T23:58:45.123Z,5.28
